Time;durP1;ratioP1;P1;durP2;ratioP2;P2;SDS_P1;SDS_P2;PMS_P1;PMS_P2;Temp;Humidity;BMP_temperature;BMP_pressure;BME280_temperature;BME280_humidity;BME280_pressure;Samples;Min_cycle;Max_cycle;Signal;HPM_P1;HPM_P2
2022/07/03 00:01:44;;;;;;;4.50;1.30;;;20.90;62.20;;;;;;5004719;28;20019;-62
2022/07/03 00:04:09;;;;;;;5.18;1.60;;;20.90;62.30;;;;;;5007335;28;20033;-62
2022/07/03 00:06:35;;;;;;;4.60;1.50;;;20.90;62.20;;;;;;5006573;28;20101;-62
2022/07/03 00:09:03;;;;;;;5.18;1.50;;;20.90;62.30;;;;;;5008158;28;20041;-62
2022/07/03 00:11:28;;;;;;;4.03;1.35;;;20.90;62.30;;;;;;5008388;28;20022;-62
2022/07/03 00:13:54;;;;;;;5.20;1.80;;;20.90;62.20;;;;;;4999483;28;20112;-62
2022/07/03 00:16:20;;;;;;;4.80;1.42;;;20.90;62.30;;;;;;5007432;28;20046;-62
2022/07/03 00:18:45;;;;;;;3.45;1.40;;;20.90;62.30;;;;;;5008485;28;20034;-62
2022/07/03 00:21:11;;;;;;;5.10;1.40;;;20.90;62.30;;;;;;5020964;28;20053;-62
2022/07/03 00:23:51;;;;;;;3.88;1.30;;;20.90;62.30;;;;;;5006609;28;20018;-62
2022/07/03 00:26:19;;;;;;;6.20;1.52;;;20.90;62.30;;;;;;5004126;28;20024;-62
2022/07/03 00:28:44;;;;;;;5.03;1.55;;;20.90;62.30;;;;;;5018663;28;20026;-62
2022/07/03 00:31:10;;;;;;;6.10;1.60;;;20.80;62.30;;;;;;5007036;28;20022;-62
2022/07/03 00:33:36;;;;;;;2.75;1.30;;;20.90;62.40;;;;;;5034121;28;20038;-62
2022/07/03 00:36:01;;;;;;;6.00;1.65;;;20.80;62.30;;;;;;5008890;28;20449;-62
2022/07/03 00:38:27;;;;;;;6.47;1.42;;;20.80;62.30;;;;;;5004228;28;20101;-62
2022/07/03 00:40:53;;;;;;;5.07;1.42;;;20.80;62.30;;;;;;5023182;28;20029;-62
2022/07/03 00:43:19;;;;;;;3.80;1.20;;;20.80;62.30;;;;;;5007721;28;20034;-62
2022/07/03 00:45:48;;;;;;;2.95;1.25;;;20.80;62.40;;;;;;5005773;28;20030;-62
2022/07/03 00:48:15;;;;;;;4.10;1.42;;;20.80;62.30;;;;;;5005911;28;20030;-62
2022/07/03 00:50:46;;;;;;;6.30;1.50;;;20.80;62.30;;;;;;5004980;28;20109;-62
2022/07/03 00:53:13;;;;;;;4.28;1.52;;;20.80;62.40;;;;;;5006140;28;20426;-62
2022/07/03 00:55:40;;;;;;;3.80;1.10;;;20.70;62.30;;;;;;5006958;28;19917;-62
2022/07/03 00:58:06;;;;;;;3.53;1.35;;;20.70;62.30;;;;;;5007762;28;20034;-62
2022/07/03 01:00:32;;;;;;;3.10;1.20;;;20.80;62.40;;;;;;5006613;28;20429;-62
2022/07/03 01:03:06;;;;;;;3.35;1.30;;;20.70;62.30;;;;;;4990862;28;20077;-62
2022/07/03 01:05:42;;;;;;;3.83;1.20;;;20.70;62.30;;;;;;5003918;28;20026;-62
2022/07/03 01:08:24;;;;;;;2.63;1.20;;;20.70;62.30;;;;;;5007920;28;20030;-62
2022/07/03 01:11:02;;;;;;;4.07;1.23;;;20.70;62.30;;;;;;5005166;28;20113;-62
2022/07/03 01:13:40;;;;;;;3.80;1.30;;;20.70;62.30;;;;;;5002915;28;20117;-62
2022/07/03 01:16:07;;;;;;;4.15;1.50;;;20.70;62.30;;;;;;5003005;28;20069;-62
2022/07/03 01:18:54;;;;;;;4.15;1.30;;;20.70;62.30;;;;;;5003756;28;20034;-62
2022/07/03 01:21:48;;;;;;;4.38;1.55;;;20.70;62.30;;;;;;5003574;28;20077;-62
2022/07/03 01:24:58;;;;;;;3.30;1.15;;;20.70;62.30;;;;;;4989833;28;20061;-62
2022/07/03 01:28:02;;;;;;;4.88;1.40;;;20.70;62.30;;;;;;4962962;28;20474;-62
2022/07/03 01:30:29;;;;;;;3.17;1.27;;;20.70;62.30;;;;;;4964039;28;20070;-61
2022/07/03 01:32:58;;;;;;;3.30;1.27;;;20.60;62.30;;;;;;4962710;28;20066;-62
2022/07/03 01:35:36;;;;;;;3.42;1.30;;;20.60;62.20;;;;;;4964292;28;22405;-62
2022/07/03 01:38:07;;;;;;;3.38;1.30;;;20.60;62.30;;;;;;4963181;28;20034;-62
2022/07/03 01:40:33;;;;;;;3.58;1.15;;;20.60;62.30;;;;;;4961116;28;20050;-62
2022/07/03 01:42:59;;;;;;;3.42;1.40;;;20.60;62.30;;;;;;4961946;28;20589;-62
2022/07/03 01:45:28;;;;;;;3.65;1.20;;;20.60;62.30;;;;;;4949316;28;20031;-62
2022/07/03 01:47:53;;;;;;;5.13;1.30;;;20.60;62.30;;;;;;4964764;28;20098;-62
2022/07/03 01:50:19;;;;;;;4.18;1.25;;;20.60;62.40;;;;;;4947437;28;20039;-61
2022/07/03 01:52:45;;;;;;;3.75;1.30;;;20.60;62.20;;;;;;4913529;28;20035;-61
2022/07/03 01:55:12;;;;;;;4.60;1.25;;;20.60;62.10;;;;;;4948603;28;20046;-61
2022/07/03 01:57:48;;;;;;;3.83;1.38;;;20.60;62.30;;;;;;4962758;28;20042;-61
2022/07/03 02:00:21;;;;;;;4.50;1.20;;;20.60;62.30;;;;;;4964316;28;20030;-61
2022/07/03 02:02:52;;;;;;;4.53;1.10;;;20.60;62.40;;;;;;4962395;28;20121;-61
2022/07/03 02:05:45;;;;;;;2.53;1.13;;;20.60;62.40;;;;;;5004548;28;20029;-61
2022/07/03 02:08:15;;;;;;;4.80;1.33;;;20.60;62.40;;;;;;5006191;28;20424;-62
2022/07/03 02:10:46;;;;;;;2.97;0.98;;;20.60;62.40;;;;;;5004214;28;20466;-62
2022/07/03 02:13:22;;;;;;;4.43;1.40;;;20.50;62.30;;;;;;5001794;28;20080;-62
2022/07/03 02:15:51;;;;;;;2.88;1.02;;;20.50;62.40;;;;;;5006616;28;20051;-62
2022/07/03 02:18:16;;;;;;;2.65;1.02;;;20.50;62.40;;;;;;5004244;28;20046;-61
2022/07/03 02:20:45;;;;;;;2.45;1.00;;;20.50;62.40;;;;;;5005575;28;20065;-61
2022/07/03 02:23:17;;;;;;;4.90;1.33;;;20.50;62.40;;;;;;5006671;28;20028;-61
2022/07/03 02:25:43;;;;;;;4.68;1.50;;;20.50;62.40;;;;;;5006852;28;20108;-62
2022/07/03 02:28:41;;;;;;;4.57;1.13;;;20.50;62.40;;;;;;5018814;28;20500;-61
2022/07/03 02:31:08;;;;;;;2.78;0.98;;;20.50;62.50;;;;;;4982621;28;20050;-62
2022/07/03 02:33:33;;;;;;;3.63;1.20;;;20.50;62.40;;;;;;5000211;28;20037;-61
2022/07/03 02:35:59;;;;;;;2.95;1.20;;;20.50;62.50;;;;;;5001799;28;20026;-61
2022/07/03 02:38:26;;;;;;;3.28;1.30;;;20.40;62.40;;;;;;4987971;28;20029;-61
2022/07/03 02:41:07;;;;;;;5.68;1.30;;;20.40;62.40;;;;;;5005704;28;20383;-62
2022/07/03 02:44:05;;;;;;;3.92;1.17;;;20.40;62.40;;;;;;5002676;28;20014;-61
2022/07/03 02:46:48;;;;;;;4.57;1.17;;;20.40;62.50;;;;;;4991680;28;20045;-62
2022/07/03 02:49:19;;;;;;;2.47;1.00;;;20.40;62.40;;;;;;5003112;28;20033;-61
2022/07/03 02:52:23;;;;;;;3.38;1.15;;;20.40;62.50;;;;;;5004879;28;20110;-61
2022/07/03 02:54:49;;;;;;;2.95;1.20;;;20.40;62.40;;;;;;4906192;29;20163;-61
2022/07/03 02:57:17;;;;;;;3.65;1.30;;;20.40;62.40;;;;;;4917524;29;20127;-62
2022/07/03 02:59:56;;;;;;;3.28;0.90;;;20.40;62.40;;;;;;4907455;29;20048;-61
2022/07/03 03:02:49;;;;;;;2.75;1.10;;;20.40;62.50;;;;;;4917167;29;20028;-62
2022/07/03 03:05:17;;;;;;;3.95;1.23;;;20.40;62.50;;;;;;4908649;29;20119;-61
2022/07/03 03:07:53;;;;;;;3.72;1.20;;;20.40;62.50;;;;;;4908133;29;20040;-61
2022/07/03 03:10:19;;;;;;;3.05;1.25;;;20.40;62.50;;;;;;4908643;29;20111;-61
2022/07/03 03:12:46;;;;;;;2.15;1.02;;;20.30;62.30;;;;;;4908416;29;20118;-61
2022/07/03 03:15:12;;;;;;;2.25;1.00;;;20.30;62.40;;;;;;4891557;29;20063;-61
2022/07/03 03:17:49;;;;;;;3.25;1.33;;;20.30;62.40;;;;;;4907571;29;20512;-61
2022/07/03 03:20:18;;;;;;;2.90;1.10;;;20.30;62.30;;;;;;4891410;29;20032;-61
2022/07/03 03:22:58;;;;;;;2.92;1.17;;;20.30;62.40;;;;;;4908300;29;20032;-61
2022/07/03 03:25:24;;;;;;;2.78;0.95;;;20.30;62.40;;;;;;4907933;29;20036;-62
2022/07/03 03:27:50;;;;;;;2.08;0.90;;;20.30;62.30;;;;;;4917844;29;20533;-62
2022/07/03 03:30:15;;;;;;;2.88;1.10;;;20.30;62.40;;;;;;4907534;29;20075;-62
2022/07/03 03:32:41;;;;;;;2.83;0.98;;;20.30;62.50;;;;;;4997044;28;20069;-61
2022/07/03 03:35:07;;;;;;;2.95;1.02;;;20.30;62.40;;;;;;5003875;28;20041;-61
2022/07/03 03:37:33;;;;;;;2.67;1.00;;;20.30;62.40;;;;;;5003893;28;20029;-61
2022/07/03 03:39:58;;;;;;;3.67;0.98;;;20.30;62.40;;;;;;5002444;28;20498;-61
2022/07/03 03:42:24;;;;;;;2.72;0.95;;;20.30;62.40;;;;;;5005070;28;20553;-61
2022/07/03 03:44:50;;;;;;;2.78;0.80;;;20.20;62.50;;;;;;5003931;28;20485;-61
2022/07/03 03:47:16;;;;;;;2.50;1.10;;;20.30;62.40;;;;;;5004960;28;20038;-61
2022/07/03 03:49:42;;;;;;;1.63;0.82;;;20.30;62.50;;;;;;5003499;28;20037;-62
2022/07/03 03:52:07;;;;;;;3.75;1.20;;;20.20;62.50;;;;;;5019022;28;20456;-61
2022/07/03 03:54:33;;;;;;;3.35;0.90;;;20.20;62.40;;;;;;5003465;28;20034;-61
2022/07/03 03:57:18;;;;;;;3.13;1.10;;;20.20;62.40;;;;;;5004244;28;20029;-62
2022/07/03 03:59:44;;;;;;;3.45;1.00;;;20.20;62.40;;;;;;5003512;28;20133;-61
2022/07/03 04:02:09;;;;;;;3.08;1.10;;;20.20;62.40;;;;;;5002821;28;20129;-62
2022/07/03 04:04:35;;;;;;;3.33;1.00;;;20.20;62.40;;;;;;5006430;28;20487;-61
2022/07/03 04:07:00;;;;;;;5.28;1.30;;;20.20;62.50;;;;;;5008513;28;20030;-61
2022/07/03 04:09:26;;;;;;;2.40;0.93;;;20.20;62.40;;;;;;5007246;28;20036;-61
2022/07/03 04:11:52;;;;;;;3.17;1.10;;;20.20;62.40;;;;;;5008745;28;20025;-61
2022/07/03 04:14:17;;;;;;;3.20;1.05;;;20.20;62.50;;;;;;5007172;28;20533;-61
2022/07/03 04:16:43;;;;;;;3.70;0.98;;;20.20;62.50;;;;;;5007965;28;20046;-62
2022/07/03 04:19:08;;;;;;;3.35;1.13;;;20.20;62.40;;;;;;5007461;28;20061;-61
2022/07/03 04:21:34;;;;;;;1.92;0.90;;;20.20;62.40;;;;;;5007155;28;20026;-61
2022/07/03 04:24:00;;;;;;;2.25;0.85;;;20.20;62.40;;;;;;5005544;28;20030;-61
2022/07/03 04:26:25;;;;;;;1.70;0.88;;;20.10;62.40;;;;;;5007245;28;20105;-61
2022/07/03 04:28:51;;;;;;;3.42;1.10;;;20.20;62.50;;;;;;5007968;28;20030;-61
2022/07/03 04:31:16;;;;;;;2.67;0.95;;;20.10;62.40;;;;;;5007884;28;20050;-61
2022/07/03 04:33:42;;;;;;;3.67;1.20;;;20.20;62.50;;;;;;5007598;28;20088;-62
2022/07/03 04:36:08;;;;;;;3.13;1.00;;;20.10;62.50;;;;;;5007463;28;20080;-61
2022/07/03 04:38:33;;;;;;;4.47;1.15;;;20.10;62.50;;;;;;5009316;28;20025;-61
2022/07/03 04:40:59;;;;;;;3.13;1.00;;;20.10;62.60;;;;;;5005111;28;20490;-61
2022/07/03 04:43:25;;;;;;;2.92;1.10;;;20.10;62.50;;;;;;5008016;28;20022;-61
2022/07/03 04:45:51;;;;;;;2.28;0.95;;;20.10;62.60;;;;;;5007404;28;20056;-61
2022/07/03 04:48:16;;;;;;;4.18;1.00;;;20.10;62.70;;;;;;5008026;28;20501;-61
2022/07/03 04:50:42;;;;;;;2.30;0.93;;;20.10;62.60;;;;;;5008313;28;20455;-61
2022/07/03 04:53:08;;;;;;;2.03;0.98;;;20.10;62.60;;;;;;5005107;28;20580;-61
2022/07/03 04:55:33;;;;;;;2.45;0.88;;;20.10;62.70;;;;;;5005775;28;20988;-61
2022/07/03 04:57:59;;;;;;;4.70;1.30;;;20.10;62.60;;;;;;5006789;28;20030;-61
2022/07/03 05:00:24;;;;;;;2.40;1.00;;;20.10;62.60;;;;;;5006051;28;20073;-61
2022/07/03 05:02:50;;;;;;;3.95;1.15;;;20.10;62.60;;;;;;5007623;28;20030;-61
2022/07/03 05:05:16;;;;;;;2.95;1.10;;;20.10;62.60;;;;;;5007117;28;20101;-61
2022/07/03 05:07:41;;;;;;;2.67;1.00;;;20.10;62.70;;;;;;5006246;28;20475;-61
2022/07/03 05:10:07;;;;;;;1.90;0.93;;;20.00;62.60;;;;;;5006990;28;20032;-61
2022/07/03 05:12:33;;;;;;;1.80;1.00;;;20.10;62.60;;;;;;5004805;28;20412;-61
2022/07/03 05:14:59;;;;;;;3.28;1.08;;;20.00;62.60;;;;;;5005461;28;20152;-61
2022/07/03 05:17:24;;;;;;;2.85;1.05;;;20.00;62.60;;;;;;5005408;28;20048;-61
2022/07/03 05:20:23;;;;;;;1.50;0.77;;;20.00;62.60;;;;;;5005822;28;20025;-61
2022/07/03 05:22:38;;;;;;;2.00;0.90;;;20.00;62.70;;;;;;5003822;28;20394;-61
2022/07/03 05:25:05;;;;;;;2.13;0.98;;;20.00;62.60;;;;;;5007847;28;20022;-61
2022/07/03 05:27:30;;;;;;;2.40;0.90;;;20.00;62.60;;;;;;5005695;28;20049;-61
2022/07/03 05:29:56;;;;;;;2.60;0.90;;;20.00;62.60;;;;;;5006784;28;20088;-61
2022/07/03 05:32:22;;;;;;;2.20;0.82;;;20.00;62.60;;;;;;5006955;28;20530;-61
2022/07/03 05:34:47;;;;;;;2.03;0.70;;;20.00;62.70;;;;;;5005835;28;20111;-61
2022/07/03 05:37:13;;;;;;;3.38;0.93;;;20.00;62.70;;;;;;5007048;28;20506;-61
2022/07/03 05:39:38;;;;;;;3.35;1.17;;;20.00;62.70;;;;;;5007379;28;20018;-61
2022/07/03 05:42:05;;;;;;;2.83;0.95;;;20.00;62.70;;;;;;5007073;28;20061;-61
2022/07/03 05:44:30;;;;;;;2.65;0.90;;;20.00;62.70;;;;;;5006305;28;20080;-61
2022/07/03 05:46:56;;;;;;;2.25;0.93;;;20.00;63.80;;;;;;5006811;28;20042;-61
2022/07/03 05:49:22;;;;;;;2.33;1.00;;;20.00;62.70;;;;;;5006258;28;20022;-61
2022/07/03 05:51:47;;;;;;;1.48;0.75;;;20.00;62.80;;;;;;5003008;28;20104;-61
2022/07/03 05:54:13;;;;;;;2.28;0.93;;;20.00;62.80;;;;;;5004508;28;20140;-61
2022/07/03 05:56:39;;;;;;;2.60;0.90;;;20.00;62.70;;;;;;5007433;28;20109;-61
2022/07/03 05:59:05;;;;;;;2.75;1.00;;;20.00;62.70;;;;;;5004347;28;20037;-61
2022/07/03 06:01:30;;;;;;;0.98;0.63;;;19.90;62.70;;;;;;5006418;28;20038;-61
2022/07/03 06:03:56;;;;;;;2.83;0.98;;;20.00;62.80;;;;;;5005091;28;20033;-61
2022/07/03 06:06:22;;;;;;;3.10;1.00;;;20.00;62.70;;;;;;5006919;28;20034;-61
2022/07/03 06:08:47;;;;;;;2.65;0.88;;;19.90;62.70;;;;;;5007433;28;20038;-61
2022/07/03 06:11:13;;;;;;;2.53;0.90;;;20.00;62.80;;;;;;5005487;28;20041;-61
2022/07/03 06:13:38;;;;;;;2.22;0.80;;;19.90;62.70;;;;;;5002679;28;20084;-61
2022/07/03 06:16:04;;;;;;;2.22;1.00;;;19.90;62.70;;;;;;5006158;28;20056;-61
2022/07/03 06:18:30;;;;;;;2.60;0.98;;;20.00;62.70;;;;;;5006503;28;20030;-61
2022/07/03 06:20:55;;;;;;;2.63;0.90;;;19.90;62.70;;;;;;5005830;28;20069;-61
2022/07/03 06:23:21;;;;;;;1.38;0.80;;;19.90;62.70;;;;;;5004305;28;20025;-62
2022/07/03 06:25:47;;;;;;;1.55;0.80;;;19.90;62.70;;;;;;5005319;28;20026;-61
2022/07/03 06:28:12;;;;;;;4.10;1.13;;;19.90;62.70;;;;;;5004685;28;20033;-61
2022/07/03 06:30:38;;;;;;;1.88;0.80;;;19.90;62.80;;;;;;5005042;28;20037;-61
2022/07/03 06:33:04;;;;;;;1.98;0.80;;;19.90;62.70;;;;;;5005458;28;20038;-61
2022/07/03 06:35:29;;;;;;;1.88;0.80;;;19.90;62.70;;;;;;5003327;28;20037;-61
2022/07/03 06:37:55;;;;;;;2.13;0.77;;;19.90;62.70;;;;;;5004598;28;20034;-61
2022/07/03 06:40:21;;;;;;;2.67;0.95;;;19.90;62.70;;;;;;5005171;28;20388;-61
2022/07/03 06:42:46;;;;;;;2.75;0.73;;;19.90;62.70;;;;;;5002821;28;20037;-61
2022/07/03 06:45:12;;;;;;;2.47;0.80;;;19.90;62.70;;;;;;5002564;28;20501;-61
2022/07/03 06:47:38;;;;;;;1.35;0.77;;;19.90;62.70;;;;;;5002828;28;20061;-61
2022/07/03 06:50:05;;;;;;;2.60;0.95;;;19.90;62.70;;;;;;5005385;28;20041;-61
2022/07/03 06:52:31;;;;;;;2.63;0.90;;;19.90;62.80;;;;;;5005693;28;20120;-61
2022/07/03 06:54:57;;;;;;;2.30;0.88;;;19.90;62.70;;;;;;5005389;28;20637;-61
2022/07/03 06:57:22;;;;;;;1.85;0.70;;;19.90;62.80;;;;;;5005029;28;20450;-62
2022/07/03 06:59:48;;;;;;;1.90;0.82;;;19.90;62.70;;;;;;5004520;28;20072;-61
2022/07/03 07:02:14;;;;;;;1.85;0.80;;;19.90;62.80;;;;;;5004896;28;20065;-61
2022/07/03 07:04:39;;;;;;;1.33;0.77;;;19.90;62.90;;;;;;5005025;28;20097;-61
2022/07/03 07:07:05;;;;;;;1.70;0.80;;;19.90;62.90;;;;;;5003519;28;20394;-61
2022/07/03 07:09:31;;;;;;;1.77;0.90;;;19.80;62.70;;;;;;5005857;28;20058;-61
2022/07/03 07:11:58;;;;;;;1.92;0.98;;;19.90;62.90;;;;;;5005268;28;20063;-62
2022/07/03 07:14:25;;;;;;;1.35;0.65;;;19.90;62.80;;;;;;5003742;28;20128;-61
2022/07/03 07:16:50;;;;;;;2.03;0.77;;;19.90;62.90;;;;;;4990975;28;20052;-61
2022/07/03 07:19:16;;;;;;;2.05;0.90;;;19.90;62.80;;;;;;4992662;28;20097;-61
2022/07/03 07:21:41;;;;;;;1.48;0.77;;;19.90;62.90;;;;;;5001248;28;20030;-61
2022/07/03 07:24:07;;;;;;;3.03;0.90;;;19.80;62.80;;;;;;5003939;28;20085;-61
2022/07/03 07:26:33;;;;;;;3.25;1.00;;;19.90;62.90;;;;;;5003891;28;20089;-61
2022/07/03 07:28:58;;;;;;;1.25;0.70;;;19.90;63.00;;;;;;5005873;28;20410;-61
2022/07/03 07:31:24;;;;;;;2.05;0.70;;;19.90;62.90;;;;;;5004152;28;20037;-62
2022/07/03 07:33:50;;;;;;;2.53;0.95;;;19.90;63.00;;;;;;5003663;28;20037;-61
2022/07/03 07:36:15;;;;;;;1.52;0.82;;;19.90;63.00;;;;;;5003173;28;20675;-61
2022/07/03 07:38:41;;;;;;;1.25;0.80;;;19.80;63.00;;;;;;5006688;28;20053;-62
2022/07/03 07:41:07;;;;;;;1.50;0.95;;;19.90;63.00;;;;;;5006928;28;20040;-61
2022/07/03 07:43:32;;;;;;;2.95;0.90;;;19.90;63.00;;;;;;5007777;28;20057;-61
2022/07/03 07:45:58;;;;;;;1.90;0.80;;;19.90;63.00;;;;;;5006016;28;20030;-61
2022/07/03 07:48:24;;;;;;;1.40;0.60;;;19.90;63.00;;;;;;5008457;28;20033;-61
2022/07/03 07:50:50;;;;;;;2.15;0.80;;;19.90;63.10;;;;;;5006469;28;20030;-61
2022/07/03 07:53:16;;;;;;;1.95;0.85;;;19.90;62.90;;;;;;5004444;28;20068;-61
2022/07/03 07:55:41;;;;;;;2.25;0.77;;;19.90;62.90;;;;;;5007931;28;20065;-61
2022/07/03 07:58:08;;;;;;;3.40;0.70;;;20.00;62.90;;;;;;5006096;28;20072;-62
2022/07/03 08:00:33;;;;;;;2.38;0.90;;;20.00;62.80;;;;;;5007579;28;20399;-62
2022/07/03 08:05:43;;;;;;;3.97;1.10;;;20.00;63.00;;;;;;5005016;28;20092;-62
2022/07/03 08:08:11;;;;;;;6.75;1.30;;;20.00;62.80;;;;;;5005666;28;20034;-62
2022/07/03 08:10:40;;;;;;;6.78;1.33;;;20.00;62.80;;;;;;5008667;28;20407;-61
2022/07/03 08:13:06;;;;;;;4.50;0.90;;;20.00;62.80;;;;;;5007356;28;20176;-61
2022/07/03 08:15:32;;;;;;;10.25;1.52;;;20.00;63.20;;;;;;5003715;28;20494;-61
2022/07/03 08:17:58;;;;;;;5.65;1.50;;;20.00;63.00;;;;;;5007690;28;20421;-61
2022/07/03 08:20:23;;;;;;;7.25;1.30;;;20.00;63.30;;;;;;5008447;28;20033;-61
2022/07/03 08:22:49;;;;;;;6.00;1.42;;;20.00;63.40;;;;;;5007410;28;20905;-61
2022/07/03 08:25:14;;;;;;;9.18;1.38;;;20.10;63.40;;;;;;5008973;28;20022;-61
2022/07/03 08:27:40;;;;;;;4.95;1.20;;;20.10;63.40;;;;;;5007332;28;20049;-61
2022/07/03 08:30:06;;;;;;;7.57;1.40;;;20.10;63.50;;;;;;5008682;28;20041;-61
2022/07/03 08:32:32;;;;;;;7.03;1.30;;;20.10;63.30;;;;;;5006612;28;20446;-61
2022/07/03 08:34:58;;;;;;;5.68;1.33;;;20.10;63.30;;;;;;5002163;28;20076;-61
2022/07/03 08:37:24;;;;;;;5.05;1.10;;;20.20;63.30;;;;;;5007355;28;20050;-60
2022/07/03 08:39:49;;;;;;;7.50;1.58;;;20.20;63.30;;;;;;5005290;28;20033;-60
2022/07/03 08:42:16;;;;;;;7.13;1.30;;;20.20;63.40;;;;;;5017940;28;20109;-60
2022/07/03 08:44:43;;;;;;;6.43;1.30;;;20.20;63.50;;;;;;4991106;28;20563;-60
2022/07/03 08:47:08;;;;;;;7.10;1.60;;;20.20;63.50;;;;;;5006579;28;20037;-59
2022/07/03 08:49:34;;;;;;;6.28;1.40;;;20.20;63.50;;;;;;5003859;28;20520;-60
2022/07/03 08:52:02;;;;;;;7.80;1.42;;;20.20;63.50;;;;;;5007185;28;20025;-60
2022/07/03 08:54:28;;;;;;;5.93;1.27;;;20.20;63.50;;;;;;4992104;28;20069;-60
2022/07/03 08:56:53;;;;;;;5.57;1.50;;;20.30;63.50;;;;;;5004449;28;20594;-62
2022/07/03 08:59:20;;;;;;;6.72;1.45;;;20.30;63.50;;;;;;5004716;28;20390;-61
2022/07/03 09:01:46;;;;;;;8.00;1.50;;;20.30;63.60;;;;;;5003718;28;20446;-61
2022/07/03 09:04:13;;;;;;;8.45;1.30;;;20.30;63.60;;;;;;5007327;28;20061;-61
2022/07/03 09:06:43;;;;;;;7.78;1.55;;;20.30;63.70;;;;;;5005541;28;20022;-61
2022/07/03 09:09:09;;;;;;;6.07;1.50;;;20.30;63.60;;;;;;5005139;28;20030;-61
2022/07/03 09:11:36;;;;;;;7.70;1.40;;;20.30;63.60;;;;;;5006187;28;20368;-61
2022/07/03 09:14:06;;;;;;;5.10;1.40;;;20.30;63.60;;;;;;5003962;28;20587;-61
2022/07/03 09:16:33;;;;;;;9.73;1.40;;;20.30;63.60;;;;;;5006083;28;20498;-61
2022/07/03 09:19:00;;;;;;;8.35;1.45;;;20.30;63.50;;;;;;5004629;28;20030;-61
2022/07/03 09:21:34;;;;;;;16.08;1.80;;;20.30;63.50;;;;;;5006557;28;20473;-61
2022/07/03 09:24:03;;;;;;;11.93;1.92;;;20.30;63.50;;;;;;5003136;28;20080;-61
2022/07/03 09:26:29;;;;;;;10.18;1.55;;;20.30;63.70;;;;;;5003849;28;20053;-61
2022/07/03 09:28:55;;;;;;;6.40;1.52;;;20.40;63.90;;;;;;5003807;28;20052;-61
2022/07/03 09:31:29;;;;;;;17.55;1.75;;;20.40;63.90;;;;;;5001346;28;20026;-61
2022/07/03 09:34:05;;;;;;;8.30;1.48;;;20.40;63.60;;;;;;5001551;28;20075;-61
2022/07/03 09:36:43;;;;;;;8.20;1.60;;;20.40;63.60;;;;;;5014849;28;20080;-61
2022/07/03 09:39:36;;;;;;;9.05;1.67;;;20.40;63.80;;;;;;5005932;28;20046;-61
2022/07/03 09:42:11;;;;;;;7.82;1.50;;;20.40;63.80;;;;;;5006144;28;20062;-61
2022/07/03 09:44:41;;;;;;;10.77;1.60;;;20.50;63.80;;;;;;5007005;28;20096;-61
2022/07/03 09:47:19;;;;;;;9.95;1.48;;;20.50;63.70;;;;;;5004491;28;20104;-61
2022/07/03 09:49:54;;;;;;;8.90;1.58;;;20.50;63.50;;;;;;5005995;28;20037;-61
2022/07/03 09:52:31;;;;;;;11.77;2.28;;;20.50;63.70;;;;;;5006543;28;20486;-61
2022/07/03 09:54:59;;;;;;;13.35;2.05;;;20.50;63.70;;;;;;5002914;28;20056;-60
2022/07/03 09:57:27;;;;;;;10.25;1.73;;;20.50;63.70;;;;;;5006479;28;20037;-61
2022/07/03 10:00:16;;;;;;;11.52;1.85;;;20.50;63.60;;;;;;5005198;28;20510;-61
2022/07/03 10:03:00;;;;;;;12.40;2.10;;;20.60;63.80;;;;;;5002095;28;20442;-61
2022/07/03 10:05:39;;;;;;;14.35;1.98;;;20.60;63.80;;;;;;5003002;28;20109;-61
2022/07/03 10:08:10;;;;;;;10.18;1.92;;;20.60;64.10;;;;;;5004795;28;20036;-61
2022/07/03 10:10:41;;;;;;;9.65;2.10;;;20.60;64.40;;;;;;5005462;28;20026;-61
2022/07/03 10:13:07;;;;;;;14.13;2.17;;;20.70;64.90;;;;;;4999758;28;20117;-61
2022/07/03 10:15:37;;;;;;;10.73;1.60;;;20.70;64.50;;;;;;5005309;28;20124;-62
2022/07/03 10:18:06;;;;;;;7.63;2.00;;;20.70;64.30;;;;;;5002528;28;20964;-61
2022/07/03 10:20:40;;;;;;;10.70;2.15;;;20.70;64.10;;;;;;5018014;28;20025;-61
2022/07/03 10:23:05;;;;;;;10.15;2.00;;;20.70;63.90;;;;;;5016354;28;20061;-61
2022/07/03 10:25:31;;;;;;;10.50;2.10;;;20.60;63.60;;;;;;5000296;28;20062;-61
2022/07/03 10:27:57;;;;;;;10.07;2.28;;;20.60;63.50;;;;;;5001261;28;20025;-62
2022/07/03 10:30:23;;;;;;;13.30;2.20;;;20.60;63.40;;;;;;4998215;28;20520;-62
2022/07/03 10:32:52;;;;;;;14.25;2.33;;;20.60;63.50;;;;;;5012295;28;20034;-62
2022/07/03 10:35:25;;;;;;;15.48;2.30;;;20.60;63.90;;;;;;5000818;28;20038;-62
2022/07/03 10:38:03;;;;;;;15.25;2.38;;;20.60;64.20;;;;;;5016817;28;20037;-62
2022/07/03 10:46:16;;;;;;;10.48;2.38;;;20.60;64.10;;;;;;5014563;28;20102;-62
2022/07/03 10:49:06;;;;;;;16.55;2.58;;;20.60;64.10;;;;;;5003774;28;20029;-62
2022/07/03 10:51:52;;;;;;;12.50;2.65;;;20.60;64.20;;;;;;5004920;28;20026;-62
2022/07/03 10:54:22;;;;;;;13.07;2.65;;;20.70;64.30;;;;;;5001691;28;20092;-62
2022/07/03 10:57:02;;;;;;;13.15;2.70;;;20.70;64.10;;;;;;5014277;28;20060;-62
2022/07/03 10:59:44;;;;;;;9.48;2.17;;;20.70;64.00;;;;;;4994655;28;20045;-62
2022/07/03 11:02:31;;;;;;;9.02;2.00;;;20.70;64.00;;;;;;4987605;28;20032;-62
2022/07/03 11:04:59;;;;;;;13.43;2.60;;;20.70;63.90;;;;;;4998782;28;20401;-62
2022/07/03 11:07:32;;;;;;;14.10;2.80;;;20.70;63.80;;;;;;5003967;28;20402;-62
2022/07/03 11:10:13;;;;;;;12.20;2.30;;;20.80;63.90;;;;;;5000636;28;20030;-62
2022/07/03 11:13:00;;;;;;;12.60;2.13;;;20.70;63.70;;;;;;5002185;28;20453;-62
2022/07/03 11:15:44;;;;;;;11.57;2.20;;;20.70;63.70;;;;;;5004831;28;20034;-62
2022/07/03 11:18:18;;;;;;;13.05;2.10;;;20.70;63.40;;;;;;5002495;28;20854;-61
2022/07/03 11:20:44;;;;;;;12.40;2.20;;;20.70;63.20;;;;;;5005969;28;20329;-61
2022/07/03 11:23:13;;;;;;;9.98;1.83;;;20.70;63.10;;;;;;5004187;28;20029;-61
2022/07/03 11:25:46;;;;;;;10.90;1.70;;;20.70;63.90;;;;;;5005819;28;20096;-61
2022/07/03 11:28:30;;;;;;;9.77;1.95;;;20.70;63.20;;;;;;5005079;28;20100;-62
2022/07/03 11:31:08;;;;;;;9.85;1.83;;;20.70;62.90;;;;;;5003009;28;20034;-61
2022/07/03 11:33:50;;;;;;;8.68;1.80;;;20.70;62.70;;;;;;5007160;28;20711;-61
2022/07/03 11:36:27;;;;;;;7.32;1.70;;;20.70;62.60;;;;;;5004410;28;20049;-61
2022/07/03 11:39:09;;;;;;;7.25;1.70;;;20.70;62.60;;;;;;5005917;28;20063;-61
2022/07/03 11:41:35;;;;;;;10.23;1.80;;;20.70;62.40;;;;;;5009454;28;20114;-62
2022/07/03 11:44:02;;;;;;;9.35;1.58;;;20.70;62.20;;;;;;5006368;28;20872;-62
2022/07/03 11:46:30;;;;;;;5.80;1.35;;;20.80;62.10;;;;;;5003502;28;20030;-62
2022/07/03 11:49:13;;;;;;;8.40;1.60;;;20.70;62.40;;;;;;5006210;28;20049;-61
2022/07/03 11:51:40;;;;;;;11.27;1.67;;;20.80;62.50;;;;;;5008584;28;20397;-61
2022/07/03 11:54:07;;;;;;;9.63;1.70;;;20.80;62.70;;;;;;5005915;28;22037;-62
2022/07/03 11:56:33;;;;;;;8.93;1.35;;;20.90;62.60;;;;;;5007241;28;20075;-60
2022/07/03 11:59:01;;;;;;;9.13;1.52;;;20.90;62.80;;;;;;5008114;28;20065;-62
2022/07/03 12:01:26;;;;;;;10.23;1.65;;;20.90;62.50;;;;;;5006956;28;20053;-62
2022/07/03 12:04:06;;;;;;;7.45;1.50;;;21.00;62.60;;;;;;5008461;28;20026;-62
2022/07/03 12:06:38;;;;;;;8.50;1.90;;;21.00;62.40;;;;;;5007223;28;20088;-62
2022/07/03 12:09:17;;;;;;;7.10;1.60;;;21.00;62.30;;;;;;5004565;28;20026;-62
2022/07/03 12:12:08;;;;;;;8.80;1.85;;;21.00;62.10;;;;;;5005655;28;20490;-62
2022/07/03 12:14:43;;;;;;;10.32;1.55;;;21.10;62.00;;;;;;5011463;28;20038;-62
2022/07/03 12:17:27;;;;;;;9.98;1.90;;;21.10;62.00;;;;;;5006382;28;20049;-61
2022/07/03 12:19:58;;;;;;;9.07;1.75;;;21.10;62.00;;;;;;5005497;28;20069;-62
2022/07/03 12:22:27;;;;;;;8.43;1.75;;;21.20;62.10;;;;;;5006018;28;20026;-63
2022/07/03 12:25:01;;;;;;;7.43;1.70;;;21.20;62.10;;;;;;5005008;28;20037;-62
2022/07/03 12:27:27;;;;;;;9.98;1.63;;;21.20;61.90;;;;;;5005374;28;20111;-62
2022/07/03 12:29:53;;;;;;;8.00;1.70;;;21.20;62.10;;;;;;5019271;28;20045;-62
2022/07/03 12:32:19;;;;;;;11.65;1.60;;;21.30;61.70;;;;;;5007228;28;20412;-62
2022/07/03 12:34:44;;;;;;;16.60;2.00;;;21.20;61.80;;;;;;5004299;28;20034;-61
2022/07/03 12:37:10;;;;;;;14.02;1.85;;;21.30;61.70;;;;;;5001310;28;20032;-60
2022/07/03 12:39:48;;;;;;;10.20;1.90;;;21.30;61.70;;;;;;5006449;28;20076;-62
2022/07/03 12:42:17;;;;;;;11.13;1.85;;;21.30;61.80;;;;;;5005786;28;20088;-61
2022/07/03 12:44:58;;;;;;;11.02;2.00;;;21.40;61.50;;;;;;5002475;28;20026;-61
2022/07/03 12:47:24;;;;;;;11.70;1.88;;;21.40;61.40;;;;;;5005634;28;20034;-63
2022/07/03 12:50:01;;;;;;;9.90;1.70;;;21.40;61.30;;;;;;5004579;28;20037;-62
2022/07/03 12:52:28;;;;;;;9.43;1.90;;;21.40;61.20;;;;;;5002724;28;20074;-63
2022/07/03 12:54:56;;;;;;;9.38;1.70;;;21.40;61.10;;;;;;5003933;28;20049;-63
2022/07/03 13:00:10;;;;;;;6.95;1.80;;;21.50;61.10;;;;;;5007027;28;20052;-63
2022/07/03 13:02:37;;;;;;;7.10;1.60;;;21.50;60.90;;;;;;5006860;28;20081;-63
2022/07/03 13:05:23;;;;;;;9.48;1.63;;;21.50;60.80;;;;;;5006973;28;20083;-62
2022/07/03 13:07:54;;;;;;;9.88;1.95;;;21.60;60.90;;;;;;5004047;28;20049;-63
2022/07/03 13:10:21;;;;;;;9.25;1.92;;;21.60;60.70;;;;;;5003194;28;20018;-63